createdAt,value
2023-03-29T00:03:08.063Z,7.12
2023-03-29T00:08:07.922Z,6.99
2023-03-29T00:13:07.990Z,7.09
2023-03-29T00:18:07.848Z,7.05
2023-03-29T00:23:07.788Z,7.20
2023-03-29T00:28:07.762Z,7.03
2023-03-29T00:33:07.715Z,7.24
2023-03-29T00:38:07.572Z,7.24
2023-03-29T00:43:07.795Z,7.13
2023-03-29T00:48:07.586Z,7.15
2023-03-29T00:53:07.461Z,7.23
2023-03-29T00:58:07.348Z,7.31
2023-03-29T01:03:07.453Z,7.27
2023-03-29T01:08:07.268Z,7.35
2023-03-29T01:13:07.233Z,7.34
2023-03-29T01:18:07.304Z,7.25
2023-03-29T01:23:07.127Z,7.37
2023-03-29T01:28:07.057Z,7.40
2023-03-29T01:33:07.021Z,7.35
2023-03-29T01:38:06.957Z,7.53
2023-03-29T01:43:06.949Z,7.40
2023-03-29T01:48:06.988Z,7.42
2023-03-29T01:53:06.737Z,7.30
2023-03-29T01:58:06.858Z,7.58
2023-03-29T02:18:36.317Z,7.39
2023-03-29T02:23:32.965Z,7.40
2023-03-29T02:28:32.939Z,7.64
2023-03-29T02:33:32.881Z,7.61
2023-03-29T02:38:36.385Z,7.72
2023-03-29T02:43:32.909Z,7.74
2023-03-29T02:48:32.675Z,7.82
2023-03-29T02:53:32.762Z,7.72
2023-03-29T02:58:32.790Z,7.61
2023-03-29T03:03:32.802Z,7.80
2023-03-29T03:08:32.688Z,7.90
2023-03-29T03:13:32.513Z,7.75
2023-03-29T03:18:32.508Z,7.67
2023-03-29T03:23:32.402Z,7.55
2023-03-29T03:28:32.257Z,7.79
2023-03-29T03:33:32.273Z,7.82
2023-03-29T03:38:32.187Z,7.87
2023-03-29T03:43:32.120Z,7.95
2023-03-29T03:48:32.184Z,7.82
2023-03-29T03:53:32.054Z,7.86
2023-03-29T03:58:32.014Z,7.92
2023-03-29T04:03:32.035Z,7.89
2023-03-29T04:08:31.832Z,8.00
2023-03-29T04:13:31.795Z,8.00
2023-03-29T04:18:31.986Z,7.98
2023-03-29T04:23:31.874Z,7.85
2023-03-29T04:28:31.720Z,7.83
2023-03-29T04:33:31.599Z,7.98
2023-03-29T04:38:31.514Z,8.05
2023-03-29T04:43:31.529Z,7.95
2023-03-29T04:48:31.604Z,7.89
2023-03-29T04:53:31.400Z,7.89
2023-03-29T04:58:32.520Z,7.97
2023-03-29T05:03:31.231Z,7.97
2023-03-29T05:08:31.480Z,7.69
2023-03-29T05:13:31.267Z,7.61
2023-03-29T05:18:31.079Z,7.69
2023-03-29T05:23:31.013Z,7.63
2023-03-29T05:28:31.167Z,7.46
2023-03-29T05:33:30.938Z,7.35
2023-03-29T05:38:30.815Z,7.87
2023-03-29T05:43:30.852Z,7.52
2023-03-29T05:48:30.778Z,7.79
2023-03-29T05:53:30.776Z,7.92
2023-03-29T05:58:30.711Z,8.04
2023-03-29T06:03:30.712Z,8.08
2023-03-29T06:08:30.494Z,8.22
2023-03-29T06:13:30.485Z,8.26
2023-03-29T06:18:30.356Z,8.40
2023-03-29T06:23:30.344Z,8.38
2023-03-29T06:28:30.318Z,8.44
2023-03-29T06:33:30.211Z,8.45
2023-03-29T06:38:30.192Z,8.53
2023-03-29T06:43:30.193Z,8.55
2023-03-29T06:48:31.155Z,8.68
2023-03-29T06:53:30.040Z,8.52
2023-03-29T06:58:29.936Z,8.89
2023-03-29T07:03:29.884Z,8.86
2023-03-29T07:08:29.833Z,9.13
2023-03-29T07:13:29.790Z,9.23
2023-03-29T07:18:29.774Z,9.17
2023-03-29T07:23:29.736Z,9.43
2023-03-29T07:28:29.718Z,9.29
2023-03-29T07:33:29.654Z,9.75
2023-03-29T07:38:29.550Z,9.56
2023-03-29T07:43:29.513Z,9.68
2023-03-29T07:48:29.519Z,9.69
2023-03-29T07:53:29.419Z,9.60
2023-03-29T07:58:29.317Z,9.68
2023-03-29T08:03:29.353Z,9.93
2023-03-29T08:08:29.232Z,10.25
2023-03-29T08:13:30.140Z,10.38
2023-03-29T08:18:29.124Z,10.45
2023-03-29T08:23:29.072Z,10.94
2023-03-29T08:28:29.100Z,11.32
2023-03-29T08:33:28.942Z,11.27
2023-03-29T08:38:28.982Z,11.24
2023-03-29T08:43:28.852Z,10.38
2023-03-29T08:48:28.836Z,10.64
2023-03-29T08:53:28.710Z,10.96
2023-03-29T08:58:28.622Z,10.84
2023-03-29T09:03:28.694Z,11.46
2023-03-29T09:08:28.529Z,11.67
2023-03-29T09:13:28.478Z,12.05
2023-03-29T09:18:28.348Z,12.41
2023-03-29T09:23:28.421Z,12.53
2023-03-29T09:28:28.345Z,12.28
2023-03-29T09:33:28.214Z,12.37
2023-03-29T09:38:28.168Z,12.05
2023-03-29T09:43:28.113Z,12.23
2023-03-29T09:48:28.017Z,12.52
2023-03-29T09:53:28.040Z,11.80
2023-03-29T09:58:28.029Z,11.76
2023-03-29T10:03:27.892Z,12.20
2023-03-29T10:08:27.828Z,12.57
2023-03-29T10:13:27.836Z,13.00
2023-03-29T10:18:27.731Z,13.51
2023-03-29T10:23:27.646Z,13.23
2023-03-29T10:28:27.648Z,13.03
2023-03-29T10:33:27.543Z,13.19
2023-03-29T10:38:27.497Z,13.20
2023-03-29T10:43:27.462Z,13.54
2023-03-29T10:48:27.432Z,13.87
2023-03-29T10:53:27.275Z,13.71
2023-03-29T10:58:27.253Z,14.73
2023-03-29T11:03:27.453Z,15.09
2023-03-29T11:08:29.011Z,15.27
2023-03-29T11:13:27.087Z,15.69
2023-03-29T11:18:27.063Z,15.27
2023-03-29T11:23:26.976Z,14.88
2023-03-29T11:28:26.954Z,15.41
2023-03-29T11:33:26.904Z,16.14
2023-03-29T11:38:26.824Z,16.57
2023-03-29T11:43:26.819Z,17.15
2023-03-29T11:48:26.727Z,17.28
2023-03-29T11:53:26.704Z,17.51
2023-03-29T11:58:26.593Z,17.62
2023-03-29T12:03:26.592Z,17.15
2023-03-29T12:08:26.544Z,17.40
2023-03-29T12:13:26.464Z,17.18
2023-03-29T12:18:26.422Z,16.56
2023-03-29T12:23:26.381Z,16.49
2023-03-29T12:28:26.263Z,16.83
2023-03-29T12:33:26.231Z,16.60
2023-03-29T12:38:27.638Z,16.05
2023-03-29T12:43:26.141Z,16.20
2023-03-29T12:48:26.103Z,16.53
2023-03-29T12:53:25.991Z,16.68
2023-03-29T12:58:25.973Z,16.35
2023-03-29T13:03:25.918Z,16.38
2023-03-29T13:08:25.910Z,16.58
2023-03-29T13:13:25.788Z,16.35
2023-03-29T13:18:25.764Z,16.23
2023-03-29T13:23:25.654Z,16.60
2023-03-29T13:28:25.667Z,17.06
2023-03-29T13:33:25.550Z,17.46
2023-03-29T13:38:25.476Z,16.81
2023-03-29T13:43:25.494Z,16.81
2023-03-29T13:48:25.420Z,17.07
2023-03-29T13:53:25.375Z,17.34
2023-03-29T13:58:25.309Z,17.81
2023-03-29T14:03:25.246Z,17.99
2023-03-29T14:08:25.174Z,18.10
2023-03-29T14:13:25.172Z,18.47
2023-03-29T14:18:25.079Z,18.66
2023-03-29T14:23:25.032Z,18.54
2023-03-29T14:28:24.967Z,18.66
2023-03-29T14:33:24.918Z,17.96
2023-03-29T14:38:24.879Z,17.99
2023-03-29T14:43:24.822Z,17.96
2023-03-29T14:48:24.893Z,18.00
2023-03-29T14:53:24.696Z,17.92
2023-03-29T14:58:24.646Z,17.97
2023-03-29T15:03:24.649Z,18.33
2023-03-29T15:08:24.583Z,18.42
2023-03-29T15:13:24.827Z,18.32
2023-03-29T15:18:24.521Z,18.05
2023-03-29T15:23:24.449Z,17.89
2023-03-29T15:28:24.335Z,18.21
2023-03-29T15:33:24.526Z,17.96
2023-03-29T15:38:33.151Z,18.51
2023-03-29T15:43:25.194Z,18.37
2023-03-29T15:48:24.077Z,18.02
2023-03-29T15:53:24.139Z,18.11
2023-03-29T15:58:24.173Z,17.75
2023-03-29T16:03:24.073Z,17.66
2023-03-29T16:08:23.966Z,17.77
2023-03-29T16:13:23.845Z,17.66
2023-03-29T16:18:23.862Z,17.86
2023-03-29T16:23:23.803Z,17.78
2023-03-29T16:28:23.821Z,17.82
2023-03-29T16:33:23.576Z,17.38
2023-03-29T16:38:23.526Z,17.21
2023-03-29T16:43:23.521Z,17.08
2023-03-29T16:48:23.453Z,17.14
2023-03-29T16:53:23.437Z,16.94
2023-03-29T16:58:23.321Z,17.12
2023-03-29T17:03:23.278Z,17.06
2023-03-29T17:08:23.338Z,16.79
2023-03-29T17:13:23.174Z,16.88
2023-03-29T17:18:24.211Z,16.96
2023-03-29T17:23:23.087Z,16.98
2023-03-29T17:28:22.942Z,17.00
2023-03-29T17:33:22.997Z,17.04
2023-03-29T17:38:22.920Z,16.93
2023-03-29T17:43:22.950Z,16.63
2023-03-29T17:48:22.796Z,16.75
2023-03-29T17:53:22.712Z,16.73
2023-03-29T17:58:22.734Z,16.83
2023-03-29T18:03:22.909Z,16.75
2023-03-29T18:08:22.923Z,16.58
2023-03-29T18:13:23.695Z,16.70
2023-03-29T18:18:22.507Z,16.70
2023-03-29T18:23:22.592Z,16.57
2023-03-29T18:28:22.336Z,16.63
2023-03-29T18:33:22.445Z,16.15
2023-03-29T18:38:23.310Z,16.17
2023-03-29T18:43:22.290Z,16.21
2023-03-29T18:48:22.252Z,16.17
2023-03-29T18:53:22.120Z,16.11
2023-03-29T18:58:22.085Z,16.27
2023-03-29T19:03:22.103Z,16.21
2023-03-29T19:08:21.870Z,16.15
2023-03-29T19:13:21.952Z,16.17
2023-03-29T19:18:21.766Z,16.21
2023-03-29T19:23:21.753Z,16.33
2023-03-29T19:28:21.788Z,16.15
2023-03-29T19:33:21.674Z,16.30
2023-03-29T19:38:21.629Z,16.17
2023-03-29T19:43:21.486Z,16.24
2023-03-29T19:48:23.337Z,16.20
2023-03-29T19:53:21.522Z,16.14
2023-03-29T19:58:21.352Z,16.02
2023-03-29T20:03:22.401Z,16.11
2023-03-29T20:08:21.397Z,16.04
2023-03-29T20:13:31.560Z,16.07
2023-03-29T20:18:22.117Z,15.94
2023-03-29T20:23:21.065Z,15.84
2023-03-29T20:28:21.197Z,15.74
2023-03-29T20:33:21.046Z,15.72
2023-03-29T20:38:21.064Z,15.49
2023-03-29T20:43:29.648Z,15.53
2023-03-29T20:48:20.781Z,15.54
2023-03-29T20:53:20.880Z,15.43
2023-03-29T20:58:20.632Z,15.43
2023-03-29T21:03:20.647Z,15.38
2023-03-29T21:08:20.471Z,15.49
2023-03-29T21:13:20.430Z,15.35
2023-03-29T21:18:20.410Z,15.51
2023-03-29T21:23:20.320Z,15.29
2023-03-29T21:28:20.260Z,15.35
2023-03-29T21:33:20.342Z,15.51
2023-03-29T21:38:20.191Z,15.19
2023-03-29T21:43:20.201Z,15.16
2023-03-29T21:48:20.106Z,15.01
2023-03-29T21:53:20.015Z,15.20
2023-03-29T21:58:20.025Z,15.23
2023-03-29T22:03:19.910Z,15.31
2023-03-29T22:08:19.919Z,15.21
2023-03-29T22:13:19.781Z,15.19
2023-03-29T22:18:19.719Z,15.13
2023-03-29T22:23:19.683Z,15.34
2023-03-29T22:28:19.685Z,15.03
2023-03-29T22:33:19.579Z,15.17
2023-03-29T22:38:19.507Z,15.20
2023-03-29T22:43:19.445Z,15.50
2023-03-29T22:48:19.477Z,15.44
2023-03-29T22:53:19.353Z,15.09
2023-03-29T22:58:19.317Z,15.16
2023-03-29T23:03:19.277Z,15.03
2023-03-29T23:08:19.196Z,14.94
2023-03-29T23:13:19.115Z,14.81
2023-03-29T23:18:19.164Z,14.43
2023-03-29T23:23:19.003Z,14.42
2023-03-29T23:28:18.937Z,14.29
2023-03-29T23:33:18.932Z,14.51
2023-03-29T23:38:18.825Z,14.42
2023-03-29T23:43:18.817Z,14.37
2023-03-29T23:48:18.722Z,14.33
2023-03-29T23:53:18.748Z,13.95
2023-03-29T23:58:18.613Z,14.04
